createdAt,value
2018-06-03T00:02:34.984Z,49.39
2018-06-03T00:17:35.030Z,51.42
2018-06-03T00:32:35.255Z,54.54
2018-06-03T00:47:36.567Z,56.46
2018-06-03T01:02:36.539Z,57.71
2018-06-03T01:17:34.564Z,59.40
2018-06-03T01:32:34.641Z,60.31
2018-06-03T01:47:36.690Z,59.08
2018-06-03T02:02:35.348Z,53.50
2018-06-03T02:17:34.723Z,51.33
2018-06-03T02:32:34.782Z,50.08
2018-06-03T02:47:34.732Z,54.63
2018-06-03T03:02:37.251Z,57.60
2018-06-03T03:17:35.455Z,59.37
2018-06-03T03:32:36.576Z,60.15
2018-06-03T03:47:35.927Z,59.74
2018-06-03T04:02:35.153Z,58.76
2018-06-03T04:17:34.493Z,57.35
2018-06-03T04:32:34.611Z,54.24
2018-06-03T04:47:34.911Z,53.27
2018-06-03T05:02:34.870Z,50.74
2018-06-03T05:17:34.914Z,50.37
2018-06-03T05:32:34.920Z,51.19
2018-06-03T05:47:34.308Z,49.10
2018-06-03T06:02:34.282Z,47.43
2018-06-03T06:17:34.487Z,46.47
2018-06-03T06:32:34.392Z,44.52
2018-06-03T06:47:34.628Z,41.88
2018-06-03T07:02:34.644Z,39.56
2018-06-03T07:17:34.653Z,37.84
2018-06-03T07:32:34.640Z,36.41
2018-06-03T07:47:35.028Z,34.64
2018-06-03T08:02:35.007Z,33.59
2018-06-03T08:17:34.525Z,32.69
2018-06-03T08:32:35.068Z,31.63
2018-06-03T08:47:34.376Z,31.86
2018-06-03T09:02:34.109Z,31.06
2018-06-03T09:17:34.651Z,30.44
2018-06-03T09:32:34.428Z,28.88
2018-06-03T09:47:34.738Z,29.60
2018-06-03T10:02:34.773Z,28.56
2018-06-03T10:17:37.400Z,27.64
2018-06-03T10:32:34.759Z,27.01
2018-06-03T10:47:38.156Z,26.90
2018-06-03T11:02:34.616Z,29.16
2018-06-03T11:17:35.129Z,27.83
2018-06-03T11:32:35.171Z,35.71
2018-06-03T11:47:34.489Z,36.03
2018-06-03T12:02:34.494Z,37.23
2018-06-03T12:17:34.512Z,35.09
2018-06-03T12:32:34.544Z,35.35
2018-06-03T12:47:34.833Z,35.17
2018-06-03T13:02:34.869Z,36.25
2018-06-03T13:17:34.412Z,37.17
2018-06-03T13:32:35.422Z,38.41
2018-06-03T13:47:35.261Z,40.88
2018-06-03T16:47:35.195Z,47.95
2018-06-03T17:02:35.032Z,45.03
2018-06-03T17:17:35.112Z,45.04
2018-06-03T17:32:35.121Z,47.45
2018-06-03T17:47:35.794Z,49.85
2018-06-03T18:02:35.390Z,48.99
2018-06-03T18:17:35.477Z,45.00
2018-06-03T18:32:34.385Z,48.28
2018-06-03T18:47:37.460Z,49.08
2018-06-03T19:02:36.706Z,48.91
2018-06-03T19:17:35.787Z,48.43
2018-06-03T19:32:35.213Z,48.17
2018-06-03T20:02:35.425Z,50.65
2018-06-03T20:17:35.089Z,49.80
2018-06-03T20:32:43.607Z,50.97
2018-06-03T20:47:35.657Z,51.77
2018-06-03T21:02:37.379Z,54.00
2018-06-03T21:17:36.259Z,52.18
2018-06-03T21:32:35.252Z,51.29
2018-06-03T21:47:38.752Z,50.46
2018-06-03T22:02:35.444Z,50.62
2018-06-03T22:17:35.193Z,50.34
2018-06-03T22:32:34.609Z,50.19
2018-06-03T22:47:37.188Z,50.07
2018-06-03T23:02:35.727Z,49.56
2018-06-03T23:17:38.866Z,49.33
2018-06-03T23:32:34.881Z,49.23
2018-06-03T23:47:36.905Z,49.04
